createdAt,value
2018-05-26T00:00:45.326Z,83.40
2018-05-26T00:03:13.096Z,83.30
2018-05-26T00:05:40.861Z,83.30
2018-05-26T00:08:08.767Z,83.40
2018-05-26T00:10:37.285Z,83.30
2018-05-26T00:13:05.072Z,83.20
2018-05-26T00:15:32.831Z,83.60
2018-05-26T00:18:00.627Z,83.70
2018-05-26T00:20:29.282Z,84.30
2018-05-26T00:23:02.786Z,84.10
2018-05-26T00:25:30.754Z,83.90
2018-05-26T00:27:59.779Z,84.30
2018-05-26T00:30:28.317Z,83.80
2018-05-26T00:32:56.214Z,83.60
2018-05-26T00:35:24.010Z,84.00
2018-05-26T00:37:51.821Z,82.90
2018-05-26T00:40:19.691Z,83.30
2018-05-26T00:42:47.444Z,83.00
2018-05-26T00:45:15.321Z,83.50
2018-05-26T00:47:43.765Z,83.10
2018-05-26T00:50:11.566Z,82.80
2018-05-26T00:52:39.842Z,83.70
2018-05-26T00:55:07.709Z,83.90
2018-05-26T00:57:35.501Z,83.50
2018-05-26T01:00:04.159Z,84.10
2018-05-26T01:02:32.230Z,84.10
2018-05-26T01:05:00.097Z,83.80
2018-05-26T01:07:27.964Z,83.70
2018-05-26T01:09:55.932Z,83.60
2018-05-26T01:12:23.799Z,83.70
2018-05-26T01:14:51.665Z,84.00
2018-05-26T01:17:19.460Z,83.70
2018-05-26T01:19:47.399Z,83.80
2018-05-26T01:22:15.265Z,84.70
2018-05-26T01:24:43.053Z,84.20
2018-05-26T01:27:10.820Z,83.50
2018-05-26T01:29:40.127Z,84.10
2018-05-26T01:32:08.779Z,84.60
2018-05-26T01:34:36.572Z,84.60
2018-05-26T01:37:05.946Z,83.90
2018-05-26T01:39:33.812Z,83.70
2018-05-26T01:42:01.784Z,83.70
2018-05-26T01:44:29.648Z,83.60
2018-05-26T01:46:57.514Z,83.80
2018-05-26T01:49:25.332Z,83.80
2018-05-26T01:51:53.097Z,84.30
2018-05-26T01:54:21.729Z,84.00
2018-05-26T01:56:49.595Z,83.80
2018-05-26T01:59:17.462Z,84.10
2018-05-26T02:01:45.357Z,83.40
2018-05-26T02:04:14.013Z,84.60
2018-05-26T02:06:41.805Z,83.90
2018-05-26T02:09:09.644Z,83.80
2018-05-26T02:11:37.437Z,83.50
2018-05-26T02:14:06.095Z,83.40
2018-05-26T02:16:33.965Z,83.30
2018-05-26T02:19:01.930Z,83.90
2018-05-26T02:21:29.797Z,83.80
2018-05-26T02:23:57.664Z,83.30
2018-05-26T02:26:25.529Z,83.50
2018-05-26T02:28:53.396Z,83.00
2018-05-26T02:31:21.267Z,83.70
2018-05-26T02:33:49.232Z,84.10
2018-05-26T02:36:17.028Z,84.80
2018-05-26T02:38:45.682Z,84.90
2018-05-26T02:41:13.549Z,85.00
2018-05-26T02:43:41.519Z,85.00
2018-05-26T02:46:09.386Z,84.70
2018-05-26T02:48:37.251Z,85.40
2018-05-26T02:51:05.117Z,84.70
2018-05-26T02:53:33.640Z,84.10
2018-05-26T02:56:02.162Z,84.20
2018-05-26T02:58:30.048Z,84.10
2018-05-26T03:00:58.026Z,84.20
2018-05-26T03:03:25.884Z,84.20
2018-05-26T03:05:59.287Z,83.90
2018-05-26T03:08:32.888Z,83.70
2018-05-26T03:11:06.379Z,83.60
2018-05-26T03:13:39.700Z,83.20
2018-05-26T03:19:13.092Z,82.40
2018-05-26T03:21:40.958Z,83.50
2018-05-26T03:24:08.823Z,83.40
2018-05-26T03:26:36.689Z,83.80
2018-05-26T03:29:04.481Z,83.70
2018-05-26T03:31:32.350Z,84.40
2018-05-26T03:34:00.289Z,83.80
2018-05-26T03:36:29.344Z,83.80
2018-05-26T03:39:00.435Z,84.20
2018-05-26T03:41:29.645Z,84.30
2018-05-26T03:43:58.308Z,84.10
2018-05-26T03:46:26.063Z,84.10
2018-05-26T03:48:53.940Z,83.60
2018-05-26T03:51:21.806Z,83.40
2018-05-26T03:53:49.672Z,83.40
2018-05-26T03:56:29.622Z,83.60
2018-05-26T03:59:09.368Z,83.50
2018-05-26T04:01:37.131Z,83.70
2018-05-26T04:04:05.000Z,83.40
2018-05-26T04:06:32.865Z,83.50
2018-05-26T04:09:00.734Z,83.50
2018-05-26T04:11:28.599Z,83.60
2018-05-26T04:13:56.393Z,83.60
2018-05-26T04:16:24.973Z,82.50
2018-05-26T04:18:53.631Z,82.70
2018-05-26T04:21:21.511Z,83.50
2018-05-26T04:23:49.288Z,83.70
2018-05-26T04:26:17.156Z,84.10
2018-05-26T04:28:44.995Z,84.10
2018-05-26T04:31:12.862Z,84.40
2018-05-26T04:33:40.724Z,84.10
2018-05-26T04:36:08.594Z,83.80
2018-05-26T04:38:36.461Z,83.40
2018-05-26T04:41:04.327Z,83.60
2018-05-26T04:43:32.195Z,83.70
2018-05-26T04:45:59.962Z,83.70
2018-05-26T04:48:27.928Z,83.00
2018-05-26T04:50:55.793Z,84.20
2018-05-26T04:53:23.661Z,84.60
2018-05-26T04:55:51.523Z,84.10
2018-05-26T04:58:19.395Z,84.60
2018-05-26T05:00:47.260Z,84.60
2018-05-26T05:03:15.019Z,84.50
2018-05-26T05:05:42.924Z,84.70
2018-05-26T05:08:11.576Z,83.90
2018-05-26T05:10:39.443Z,83.70
2018-05-26T05:13:07.208Z,83.30
2018-05-26T05:15:35.081Z,83.30
2018-05-26T05:18:02.941Z,82.70
2018-05-26T05:20:30.689Z,83.30
2018-05-26T05:22:58.572Z,83.00
2018-05-26T05:25:26.337Z,83.00
2018-05-26T05:27:54.099Z,83.10
2018-05-26T05:30:21.966Z,83.40
2018-05-26T05:32:49.832Z,82.80
2018-05-26T05:35:17.624Z,82.10
2018-05-26T05:37:45.469Z,82.80
2018-05-26T05:40:13.330Z,82.60
2018-05-26T05:42:41.196Z,82.30
2018-05-26T05:45:09.063Z,82.40
2018-05-26T05:47:36.930Z,82.60
2018-05-26T05:50:04.824Z,82.40
2018-05-26T05:52:32.765Z,82.30
2018-05-26T05:55:00.529Z,81.60
2018-05-26T05:57:28.396Z,81.40
2018-05-26T05:59:56.365Z,81.20
2018-05-26T06:02:24.239Z,80.90
2018-05-26T06:04:52.098Z,80.40
2018-05-26T06:07:19.966Z,80.70
2018-05-26T06:09:47.756Z,80.10
2018-05-26T06:12:15.596Z,80.10
2018-05-26T06:14:43.463Z,80.00
2018-05-26T06:17:11.329Z,79.50
2018-05-26T06:19:39.913Z,80.20
2018-05-26T06:22:07.706Z,80.20
2018-05-26T06:24:35.543Z,80.10
2018-05-26T06:27:03.410Z,79.00
2018-05-26T06:29:31.154Z,78.80
2018-05-26T06:31:59.041Z,78.90
2018-05-26T06:34:26.787Z,77.50
2018-05-26T06:36:55.388Z,76.30
2018-05-26T06:39:23.254Z,76.40
2018-05-26T06:41:51.121Z,76.40
2018-05-26T06:44:18.988Z,75.40
2018-05-26T06:46:46.785Z,75.10
2018-05-26T06:49:15.438Z,69.70
2018-05-26T06:51:43.301Z,69.60
2018-05-26T06:54:11.098Z,99.90
2018-05-26T06:56:38.937Z,99.90
2018-05-26T06:59:06.763Z,50.20
2018-05-26T07:01:34.776Z,44.20
2018-05-26T07:04:02.536Z,41.00
2018-05-26T07:06:30.401Z,38.10
2018-05-26T07:08:58.277Z,37.60
2018-05-26T07:11:26.135Z,38.00
2018-05-26T07:13:54.000Z,36.10
2018-05-26T07:16:21.796Z,34.50
2018-05-26T07:18:49.736Z,35.20
2018-05-26T07:21:17.601Z,34.00
2018-05-26T07:23:45.470Z,34.60
2018-05-26T07:26:13.265Z,33.60
2018-05-26T07:28:41.806Z,31.00
2018-05-26T07:31:09.681Z,31.00
2018-05-26T07:33:37.547Z,31.50
2018-05-26T07:36:05.417Z,30.90
2018-05-26T07:38:33.165Z,28.70
2018-05-26T07:41:00.964Z,29.00
2018-05-26T07:43:28.911Z,29.70
2018-05-26T07:45:56.777Z,29.20
2018-05-26T07:48:24.569Z,29.10
2018-05-26T07:50:52.436Z,28.50
2018-05-26T07:53:20.381Z,28.90
2018-05-26T07:55:48.207Z,28.90
2018-05-26T07:58:16.111Z,29.20
2018-05-26T08:00:43.991Z,27.50
2018-05-26T08:03:11.740Z,28.00
2018-05-26T08:05:39.611Z,26.90
2018-05-26T08:08:07.474Z,27.30
2018-05-26T08:10:35.341Z,27.60
2018-05-26T08:13:03.133Z,29.00
2018-05-26T08:15:31.075Z,27.60
2018-05-26T08:17:58.942Z,29.00
2018-05-26T08:20:26.705Z,28.00
2018-05-26T08:22:54.572Z,28.50
2018-05-26T08:25:22.541Z,28.60
2018-05-26T08:27:50.412Z,28.50
2018-05-26T08:30:18.275Z,29.20
2018-05-26T08:32:46.143Z,27.90
2018-05-26T08:35:14.008Z,28.00
2018-05-26T08:37:41.800Z,27.30
2018-05-26T08:40:09.639Z,28.10
2018-05-26T08:42:37.429Z,27.60
2018-05-26T08:45:05.972Z,28.30
2018-05-26T08:47:33.853Z,28.30
2018-05-26T08:50:01.719Z,27.90
2018-05-26T08:52:29.585Z,27.20
2018-05-26T08:54:57.382Z,26.10
2018-05-26T08:57:26.035Z,27.90
2018-05-26T08:59:53.903Z,27.80
2018-05-26T09:02:21.879Z,27.20
2018-05-26T09:04:49.738Z,26.60
2018-05-26T09:07:17.604Z,27.20
2018-05-26T09:09:45.470Z,26.80
2018-05-26T09:12:13.337Z,26.60
2018-05-26T09:14:41.207Z,26.00
2018-05-26T09:17:09.071Z,25.40
2018-05-26T09:22:15.741Z,26.70
2018-05-26T09:24:43.493Z,24.80
2018-05-26T09:27:11.304Z,27.00
2018-05-26T09:29:39.060Z,26.20
2018-05-26T09:32:06.811Z,27.60
2018-05-26T09:34:34.556Z,28.20
2018-05-26T09:37:02.309Z,26.10
2018-05-26T09:39:30.066Z,25.60
2018-05-26T09:41:58.083Z,28.10
2018-05-26T09:44:25.839Z,28.70
2018-05-26T09:46:53.711Z,26.60
2018-05-26T09:49:21.468Z,27.90
2018-05-26T09:51:49.222Z,27.30
2018-05-26T09:54:16.986Z,28.70
2018-05-26T09:56:44.746Z,28.80
2018-05-26T09:59:12.516Z,27.50
2018-05-26T10:01:40.269Z,27.30
2018-05-26T10:04:08.161Z,27.40
2018-05-26T10:06:36.729Z,29.50
2018-05-26T10:09:04.714Z,29.50
2018-05-26T10:11:32.580Z,31.20
2018-05-26T10:14:00.344Z,30.80
2018-05-26T10:16:28.210Z,29.90
2018-05-26T10:18:55.963Z,28.50
2018-05-26T10:21:23.712Z,30.50
2018-05-26T10:23:51.469Z,29.90
2018-05-26T10:26:19.267Z,32.70
2018-05-26T10:28:47.053Z,34.10
2018-05-26T10:31:14.811Z,34.80
2018-05-26T10:33:42.566Z,36.20
2018-05-26T10:36:10.322Z,37.90
2018-05-26T10:38:38.078Z,37.70
2018-05-26T10:41:05.858Z,39.50
2018-05-26T10:43:33.615Z,40.90
2018-05-26T10:46:13.054Z,40.80
2018-05-26T10:48:40.809Z,42.40
2018-05-26T10:51:08.565Z,44.30
2018-05-26T10:53:36.326Z,44.40
2018-05-26T10:56:04.092Z,45.20
2018-05-26T10:58:31.841Z,43.70
2018-05-26T11:00:59.588Z,44.90
2018-05-26T11:03:28.141Z,42.30
2018-05-26T11:05:56.429Z,42.30
2018-05-26T11:08:25.705Z,44.00
2018-05-26T11:10:53.455Z,43.90
2018-05-26T11:13:21.219Z,44.00
2018-05-26T11:15:48.972Z,44.30
2018-05-26T11:18:16.883Z,45.00
2018-05-26T11:20:44.624Z,46.30
2018-05-26T11:23:12.390Z,46.90
2018-05-26T11:25:40.152Z,43.70
2018-05-26T11:28:07.969Z,44.50
2018-05-26T11:30:35.717Z,46.10
2018-05-26T11:33:04.363Z,47.00
2018-05-26T11:35:32.130Z,46.90
2018-05-26T11:38:00.095Z,46.40
2018-05-26T11:40:27.845Z,46.80
2018-05-26T11:42:55.597Z,48.00
2018-05-26T11:45:23.416Z,47.30
2018-05-26T11:47:51.358Z,47.20
2018-05-26T11:50:19.153Z,44.70
2018-05-26T11:52:48.628Z,47.00
2018-05-26T11:55:16.384Z,47.00
2018-05-26T11:57:44.144Z,48.70
2018-05-26T12:00:11.892Z,47.60
2018-05-26T12:02:39.644Z,45.70
2018-05-26T12:05:07.408Z,47.00
2018-05-26T12:07:35.173Z,47.20
2018-05-26T12:10:03.452Z,47.00
2018-05-26T12:12:31.550Z,47.60
2018-05-26T12:14:59.306Z,48.90
2018-05-26T12:17:27.073Z,49.40
2018-05-26T12:19:54.861Z,50.30
2018-05-26T12:22:22.620Z,50.20
2018-05-26T12:24:50.379Z,50.60
2018-05-26T12:27:18.160Z,52.10
2018-05-26T12:29:45.919Z,51.70
2018-05-26T12:32:13.676Z,50.30
2018-05-26T12:34:41.434Z,50.60
2018-05-26T12:37:09.207Z,49.60
2018-05-26T12:39:36.960Z,49.70
2018-05-26T12:42:04.735Z,49.30
2018-05-26T12:44:32.484Z,50.00
2018-05-26T12:47:00.249Z,49.80
2018-05-26T12:49:28.000Z,49.80
2018-05-26T12:51:55.768Z,49.90
2018-05-26T12:54:23.536Z,49.80
2018-05-26T12:56:51.288Z,49.30
2018-05-26T12:59:19.040Z,49.20
2018-05-26T13:01:46.789Z,49.30
2018-05-26T13:04:15.376Z,48.70
2018-05-26T13:06:43.896Z,49.70
2018-05-26T13:09:11.658Z,49.80
2018-05-26T13:11:39.414Z,49.50
2018-05-26T13:14:07.161Z,49.30
2018-05-26T13:16:34.962Z,49.30
2018-05-26T13:19:02.737Z,50.10
2018-05-26T13:21:30.657Z,49.50
2018-05-26T13:23:58.413Z,49.20
2018-05-26T13:26:26.940Z,49.50
2018-05-26T13:28:54.699Z,49.40
2018-05-26T13:31:22.959Z,49.40
2018-05-26T13:33:51.368Z,49.60
2018-05-26T13:36:19.124Z,47.50
2018-05-26T13:38:46.868Z,46.30
2018-05-26T13:41:15.110Z,46.60
2018-05-26T13:43:43.662Z,44.60
2018-05-26T13:46:11.568Z,44.60
2018-05-26T13:48:39.952Z,44.70
2018-05-26T13:51:07.769Z,43.90
2018-05-26T13:53:35.584Z,43.80
2018-05-26T13:56:03.305Z,43.80
2018-05-26T13:58:31.067Z,43.90
2018-05-26T14:00:58.836Z,45.00
2018-05-26T14:03:26.610Z,45.90
2018-05-26T14:05:54.379Z,44.30
2018-05-26T14:08:22.922Z,44.10
2018-05-26T14:10:50.772Z,44.10
2018-05-26T14:13:18.617Z,44.40
2018-05-26T14:15:46.453Z,43.80
2018-05-26T14:18:14.940Z,44.30
2018-05-26T14:20:43.462Z,46.20
2018-05-26T14:23:11.318Z,46.20
2018-05-26T14:25:39.835Z,46.60
2018-05-26T14:28:07.589Z,46.60
2018-05-26T14:30:35.783Z,46.50
2018-05-26T14:33:03.553Z,45.70
2018-05-26T14:35:31.385Z,44.80
2018-05-26T14:37:59.185Z,46.90
2018-05-26T14:40:26.940Z,45.80
2018-05-26T14:42:54.701Z,45.30
2018-05-26T14:45:22.464Z,45.90
2018-05-26T14:47:50.240Z,46.70
2018-05-26T14:50:18.009Z,46.00
2018-05-26T14:52:45.760Z,45.50
2018-05-26T14:55:13.574Z,45.80
2018-05-26T14:57:41.350Z,45.70
2018-05-26T15:00:09.123Z,46.90
2018-05-26T15:02:36.876Z,46.30
2018-05-26T15:05:04.656Z,47.20
2018-05-26T15:07:32.436Z,47.40
2018-05-26T15:10:00.180Z,46.90
2018-05-26T15:12:27.951Z,46.50
2018-05-26T15:14:55.698Z,46.30
2018-05-26T15:17:23.445Z,47.40
2018-05-26T15:19:51.955Z,46.60
2018-05-26T15:22:19.708Z,46.60
2018-05-26T15:24:47.461Z,46.90
2018-05-26T15:27:15.222Z,47.30
2018-05-26T15:29:42.985Z,47.30
2018-05-26T15:32:10.753Z,47.30
2018-05-26T15:34:39.272Z,47.40
2018-05-26T15:37:07.058Z,46.80
2018-05-26T15:39:34.809Z,47.30
2018-05-26T15:42:02.676Z,47.20
2018-05-26T15:44:30.468Z,47.30
2018-05-26T15:46:58.409Z,48.40
2018-05-26T15:49:26.204Z,49.70
2018-05-26T15:51:54.143Z,50.70
2018-05-26T15:54:21.901Z,48.50
2018-05-26T15:56:49.655Z,49.00
2018-05-26T15:59:17.421Z,49.40
2018-05-26T16:01:45.210Z,49.60
2018-05-26T16:04:12.962Z,50.00
2018-05-26T16:06:40.712Z,49.90
2018-05-26T16:09:08.478Z,50.10
2018-05-26T16:11:36.289Z,51.30
2018-05-26T16:14:04.225Z,50.30
2018-05-26T16:16:32.093Z,49.40
2018-05-26T16:18:59.958Z,49.40
2018-05-26T16:21:27.851Z,49.30
2018-05-26T16:23:56.233Z,50.30
2018-05-26T16:26:24.172Z,49.60
2018-05-26T16:28:51.931Z,50.80
2018-05-26T16:31:19.694Z,50.00
2018-05-26T16:33:47.448Z,50.30
2018-05-26T16:36:15.433Z,51.20
2018-05-26T16:38:43.380Z,50.40
2018-05-26T16:41:11.684Z,51.70
2018-05-26T16:43:39.993Z,52.00
2018-05-26T16:46:08.760Z,51.30
2018-05-26T16:48:36.516Z,51.20
2018-05-26T16:51:04.308Z,50.90
2018-05-26T16:53:32.829Z,52.00
2018-05-26T16:56:01.545Z,52.30
2018-05-26T16:58:29.308Z,52.30
2018-05-26T17:00:57.070Z,52.60
2018-05-26T17:03:25.081Z,52.70
2018-05-26T17:05:53.887Z,54.40
2018-05-26T17:08:21.765Z,54.40
2018-05-26T17:10:49.896Z,53.80
2018-05-26T17:13:18.079Z,53.70
2018-05-26T17:15:46.626Z,53.20
2018-05-26T17:18:14.499Z,53.20
2018-05-26T17:20:43.024Z,53.20
2018-05-26T17:23:11.536Z,53.00
2018-05-26T17:25:40.075Z,53.00
2018-05-26T17:28:09.168Z,54.80
2018-05-26T17:30:37.687Z,55.40
2018-05-26T17:33:05.449Z,55.40
2018-05-26T17:35:33.550Z,56.30
2018-05-26T17:38:01.777Z,57.00
2018-05-26T17:40:31.546Z,58.50
2018-05-26T17:42:59.945Z,58.40
2018-05-26T17:45:27.701Z,59.00
2018-05-26T17:47:56.197Z,59.10
2018-05-26T17:50:24.716Z,60.10
2018-05-26T17:52:52.472Z,60.10
2018-05-26T17:55:20.832Z,60.30
2018-05-26T17:57:49.534Z,62.30
2018-05-26T18:00:17.858Z,61.50
2018-05-26T18:02:45.620Z,61.60
2018-05-26T18:05:14.186Z,62.20
2018-05-26T18:07:42.006Z,62.70
2018-05-26T18:10:10.548Z,63.90
2018-05-26T18:12:38.496Z,63.90
2018-05-26T18:15:06.292Z,64.00
2018-05-26T18:17:34.503Z,64.90
2018-05-26T18:20:02.769Z,65.30
2018-05-26T18:22:31.486Z,66.20
2018-05-26T18:24:59.441Z,66.20
2018-05-26T18:27:27.225Z,67.00
2018-05-26T18:29:54.985Z,67.10
2018-05-26T18:32:22.730Z,68.00
2018-05-26T18:34:51.252Z,68.40
2018-05-26T18:37:18.996Z,68.40
2018-05-26T18:39:46.757Z,68.40
2018-05-26T18:42:14.545Z,69.00
2018-05-26T18:44:42.303Z,69.10
2018-05-26T18:47:10.059Z,69.30
2018-05-26T18:49:37.825Z,69.60
2018-05-26T18:52:05.609Z,69.30
2018-05-26T18:54:33.373Z,69.90
2018-05-26T18:57:01.135Z,69.90
2018-05-26T18:59:28.880Z,69.90
2018-05-26T19:01:56.625Z,70.10
2018-05-26T19:04:24.370Z,68.70
2018-05-26T19:06:52.886Z,70.00
2018-05-26T19:09:20.640Z,69.90
2018-05-26T19:11:48.392Z,69.40
2018-05-26T19:14:16.141Z,70.10
2018-05-26T19:16:44.657Z,69.40
2018-05-26T19:19:12.417Z,69.40
2018-05-26T19:21:40.178Z,69.40
2018-05-26T19:24:07.938Z,68.90
2018-05-26T19:26:35.757Z,69.20
2018-05-26T19:29:03.540Z,70.00
2018-05-26T19:31:32.074Z,70.60
2018-05-26T19:33:59.833Z,70.50
2018-05-26T19:36:27.586Z,71.10
2018-05-26T19:38:55.329Z,71.00
2018-05-26T19:41:23.860Z,71.20
2018-05-26T19:43:51.612Z,71.20
2018-05-26T19:46:19.365Z,70.90
2018-05-26T19:48:47.129Z,70.50
2018-05-26T19:51:14.879Z,70.40
2018-05-26T19:53:42.641Z,70.30
2018-05-26T19:56:10.396Z,71.00
2018-05-26T19:58:38.945Z,70.30
2018-05-26T20:01:06.696Z,70.30
2018-05-26T20:03:34.441Z,69.90
2018-05-26T20:06:02.229Z,70.20
2018-05-26T20:08:30.001Z,69.90
2018-05-26T20:10:57.763Z,69.70
2018-05-26T20:13:25.522Z,70.60
2018-05-26T20:15:53.298Z,70.70
2018-05-26T20:18:21.049Z,70.80
2018-05-26T20:20:48.812Z,71.30
2018-05-26T20:23:16.568Z,72.60
2018-05-26T20:25:44.327Z,71.80
2018-05-26T20:28:12.084Z,72.30
2018-05-26T20:30:39.838Z,72.90
2018-05-26T20:33:07.597Z,72.60
2018-05-26T20:35:35.350Z,72.60
2018-05-26T20:38:03.106Z,72.70
2018-05-26T20:40:31.655Z,72.70
2018-05-26T20:42:59.428Z,72.70
2018-05-26T20:45:27.184Z,72.90
2018-05-26T20:47:54.937Z,72.50
2018-05-26T20:50:22.744Z,72.30
2018-05-26T20:52:51.265Z,72.70
2018-05-26T20:55:19.021Z,72.70
2018-05-26T20:57:46.780Z,72.70
2018-05-26T21:00:14.540Z,73.40
2018-05-26T21:02:42.303Z,73.30
2018-05-26T21:05:10.059Z,73.40
2018-05-26T21:07:37.811Z,73.40
2018-05-26T21:10:06.444Z,73.60
2018-05-26T21:12:34.197Z,73.60
2018-05-26T21:15:01.960Z,73.80
2018-05-26T21:17:29.718Z,73.80
2018-05-26T21:19:57.474Z,74.00
2018-05-26T21:22:25.230Z,74.30
2018-05-26T21:24:53.029Z,74.50
2018-05-26T21:27:20.895Z,74.00
2018-05-26T21:29:48.761Z,74.80
2018-05-26T21:32:16.628Z,74.50
2018-05-26T21:34:44.420Z,74.20
2018-05-26T21:37:12.364Z,74.40
2018-05-26T21:39:40.120Z,74.40
2018-05-26T21:42:07.976Z,74.60
2018-05-26T21:44:35.725Z,74.80
2018-05-26T21:47:03.493Z,74.60
2018-05-26T21:49:31.265Z,74.80
2018-05-26T21:51:59.016Z,74.50
2018-05-26T21:54:26.774Z,74.90
2018-05-26T21:56:54.530Z,75.10
2018-05-26T21:59:23.041Z,75.30
2018-05-26T22:01:50.841Z,75.30
2018-05-26T22:04:18.610Z,75.90
2018-05-26T22:06:46.364Z,75.40
2018-05-26T22:09:14.121Z,75.50
2018-05-26T22:11:41.877Z,75.60
2018-05-26T22:14:09.641Z,76.40
2018-05-26T22:16:37.388Z,76.00
2018-05-26T22:19:05.145Z,75.90
2018-05-26T22:21:32.985Z,75.60
2018-05-26T22:24:01.511Z,76.80
2018-05-26T22:26:29.269Z,76.70
2018-05-26T22:28:57.020Z,76.90
2018-05-26T22:31:24.785Z,76.70
2018-05-26T22:33:52.534Z,77.00
2018-05-26T22:36:20.289Z,76.90
2018-05-26T22:38:48.804Z,77.10
2018-05-26T22:41:16.564Z,77.10
2018-05-26T22:43:44.314Z,77.00
2018-05-26T22:46:13.754Z,76.90
2018-05-26T22:48:41.722Z,76.90
2018-05-26T22:51:09.513Z,76.80
2018-05-26T22:53:37.425Z,76.90
2018-05-26T22:56:05.323Z,77.50
2018-05-26T22:58:33.087Z,77.30
2018-05-26T23:01:00.850Z,77.40
2018-05-26T23:03:28.612Z,77.60
2018-05-26T23:05:56.357Z,77.70
2018-05-26T23:08:24.148Z,77.30
2018-05-26T23:10:51.901Z,77.80
2018-05-26T23:13:19.705Z,78.00
2018-05-26T23:15:48.236Z,78.00
2018-05-26T23:18:16.024Z,77.80
2018-05-26T23:20:43.782Z,78.00
2018-05-26T23:23:11.536Z,77.30
2018-05-26T23:25:39.288Z,78.50
2018-05-26T23:28:07.053Z,78.70
2018-05-26T23:30:34.800Z,79.10
2018-05-26T23:33:02.553Z,79.00
2018-05-26T23:35:31.081Z,78.70
2018-05-26T23:37:58.839Z,78.70
2018-05-26T23:40:26.593Z,78.80
2018-05-26T23:42:54.478Z,78.50
2018-05-26T23:45:22.345Z,78.70
2018-05-26T23:47:50.211Z,78.60
2018-05-26T23:50:18.078Z,79.10
2018-05-26T23:52:45.946Z,78.40
2018-05-26T23:55:13.736Z,78.40
2018-05-26T23:57:41.605Z,78.80
